Raisin, Texas
Current Conditions -  °F | °C
As of 11:51 PM on Wednesday 22 Oct 2014 (Local Time) from KVCT Reporting Station
Clear Clear  
Wind Chill: 18°   Ceiling: Unl
Heat Index: 18°   Visibility: 8mi
Dew Point: 16°   Wind: 0mph
Humidity: 90%   Direction: NA
Pressure: 30.08"   Gusts: NA
Location:  28.877°N, 97.189°W
Report Text: KVCT 230451Z AUTO 00000KT 8SM CLR 18/16 A3008 RMK AO2 SLP184 T01780161
Loading
Personal Weather Stations






























Interactive Weather Map
Tropical Storm Tracking
New forecast layout! Learn more

10-Day Weather Forecast

Advertisements
Track Severe Weather on mobile